createdAt,value
2018-12-11T00:00:59.154Z,12.93
2018-12-11T00:03:26.618Z,17.27
2018-12-11T00:05:54.110Z,9.87
2018-12-11T00:08:21.584Z,11.10
2018-12-11T00:10:49.079Z,12.27
2018-12-11T00:13:16.523Z,15.13
2018-12-11T00:15:44.032Z,14.00
2018-12-11T00:18:11.501Z,15.77
2018-12-11T00:20:38.956Z,12.40
2018-12-11T00:23:06.434Z,13.03
2018-12-11T00:25:33.948Z,10.97
2018-12-11T00:28:01.470Z,11.70
2018-12-11T00:30:28.951Z,13.17
2018-12-11T00:32:56.422Z,13.90
2018-12-11T00:35:23.909Z,14.17
2018-12-11T00:37:51.382Z,11.57
2018-12-11T00:40:18.854Z,13.80
2018-12-11T00:42:46.326Z,11.43
2018-12-11T00:45:13.915Z,12.67
2018-12-11T00:47:41.370Z,13.13
2018-12-11T00:50:08.913Z,11.70
2018-12-11T00:52:36.402Z,12.97
2018-12-11T00:55:04.199Z,11.57
2018-12-11T00:57:31.686Z,12.57
2018-12-11T00:59:59.139Z,12.00
2018-12-11T01:02:26.698Z,13.57
2018-12-11T01:04:54.245Z,14.57
2018-12-11T01:07:21.744Z,12.33
2018-12-11T01:09:49.213Z,11.97
2018-12-11T01:12:16.684Z,13.80
2018-12-11T01:14:44.158Z,12.20
2018-12-11T01:17:11.626Z,14.53
2018-12-11T01:19:39.083Z,15.37
2018-12-11T01:22:06.570Z,13.07
2018-12-11T01:24:34.023Z,12.60
2018-12-11T01:27:01.497Z,16.07
2018-12-11T01:29:28.983Z,9.77
2018-12-11T01:31:56.463Z,13.97
2018-12-11T01:34:24.052Z,11.23
2018-12-11T01:36:51.511Z,16.60
2018-12-11T01:39:18.980Z,12.53
2018-12-11T01:41:47.428Z,12.17
2018-12-11T01:44:14.905Z,17.23
2018-12-11T01:46:42.392Z,13.47
2018-12-11T01:49:09.863Z,18.63
2018-12-11T01:51:37.329Z,12.50
2018-12-11T01:54:04.811Z,12.93
2018-12-11T01:56:32.283Z,12.67
2018-12-11T01:58:59.754Z,12.27
2018-12-11T02:01:27.239Z,13.80
2018-12-11T02:03:54.738Z,11.90
2018-12-11T02:06:22.203Z,14.93
2018-12-11T02:08:49.681Z,13.10
2018-12-11T02:11:17.159Z,16.37
2018-12-11T02:13:44.617Z,17.63
2018-12-11T02:16:12.087Z,14.07
2018-12-11T02:18:39.565Z,15.00
2018-12-11T02:21:07.058Z,10.27
2018-12-11T02:23:34.546Z,13.87
2018-12-11T02:26:02.027Z,12.70
2018-12-11T02:28:29.503Z,12.70
2018-12-11T02:30:56.979Z,14.27
2018-12-11T02:33:24.444Z,13.40
2018-12-11T02:35:51.943Z,12.27
2018-12-11T02:38:19.501Z,15.43
2018-12-11T02:40:47.415Z,16.50
2018-12-11T02:43:14.885Z,15.90
2018-12-11T02:45:42.337Z,14.63
2018-12-11T02:48:09.840Z,12.83
2018-12-11T02:50:37.296Z,14.90
2018-12-11T02:53:04.783Z,12.70
2018-12-11T02:55:32.260Z,17.47
2018-12-11T02:57:59.731Z,20.37
2018-12-11T03:00:27.291Z,17.73
2018-12-11T03:02:54.755Z,13.73
2018-12-11T03:05:22.235Z,12.13
2018-12-11T03:07:49.685Z,15.30
2018-12-11T03:10:17.182Z,13.63
2018-12-11T03:12:44.736Z,12.43
2018-12-11T03:15:12.200Z,14.10
2018-12-11T03:17:39.675Z,14.47
2018-12-11T03:20:07.302Z,13.00
2018-12-11T03:22:34.795Z,11.87
2018-12-11T03:25:02.298Z,19.53
2018-12-11T03:27:29.795Z,15.73
2018-12-11T03:29:57.283Z,18.27
2018-12-11T03:32:25.208Z,14.27
2018-12-11T03:34:52.649Z,14.70
2018-12-11T03:37:20.149Z,11.00
2018-12-11T03:39:47.589Z,15.47
2018-12-11T03:42:15.079Z,13.00
2018-12-11T03:44:42.552Z,14.27
2018-12-11T03:47:10.050Z,12.33
2018-12-11T03:49:37.526Z,15.73
2018-12-11T03:52:04.979Z,16.07
2018-12-11T03:54:32.455Z,10.37
2018-12-11T03:56:59.957Z,18.20
2018-12-11T03:59:27.449Z,13.00
2018-12-11T04:01:54.994Z,13.23
2018-12-11T04:04:22.473Z,14.90
2018-12-11T04:06:49.930Z,11.97
2018-12-11T04:09:17.403Z,10.67
2018-12-11T04:11:44.966Z,18.80
2018-12-11T04:14:12.446Z,16.30
2018-12-11T04:16:39.998Z,15.37
2018-12-11T04:19:07.491Z,10.90
2018-12-11T04:21:34.994Z,17.47
2018-12-11T04:24:02.481Z,17.87
2018-12-11T04:26:29.934Z,13.60
2018-12-11T04:28:57.429Z,10.93
2018-12-11T04:31:24.889Z,13.77
2018-12-11T04:33:52.387Z,11.43
2018-12-11T04:36:19.841Z,10.40
2018-12-11T04:38:47.286Z,17.03
2018-12-11T04:41:14.805Z,15.93
2018-12-11T04:43:42.268Z,15.47
2018-12-11T04:46:09.733Z,10.83
2018-12-11T04:48:37.183Z,9.27
2018-12-11T04:51:04.678Z,11.33
2018-12-11T04:53:32.129Z,16.00
2018-12-11T04:55:59.678Z,18.43
2018-12-11T04:58:27.123Z,12.13
2018-12-11T05:00:54.606Z,17.03
2018-12-11T05:03:22.124Z,18.37
2018-12-11T05:05:49.690Z,12.77
2018-12-11T05:08:17.165Z,11.43
2018-12-11T05:10:44.722Z,12.03
2018-12-11T05:13:12.255Z,10.57
2018-12-11T05:15:39.711Z,16.30
2018-12-11T05:18:07.197Z,10.60
2018-12-11T05:20:34.670Z,16.17
2018-12-11T05:23:02.150Z,12.83
2018-12-11T05:25:29.603Z,10.20
2018-12-11T05:27:57.082Z,9.57
2018-12-11T05:30:24.564Z,12.87
2018-12-11T05:32:52.156Z,17.60
2018-12-11T05:35:19.621Z,11.67
2018-12-11T05:37:47.100Z,10.83
2018-12-11T05:40:14.575Z,11.07
2018-12-11T05:42:42.054Z,10.87
2018-12-11T05:45:09.590Z,15.50
2018-12-11T05:47:37.082Z,11.00
2018-12-11T05:50:05.035Z,13.43
2018-12-11T05:52:32.516Z,12.27
2018-12-11T05:54:59.963Z,12.60
2018-12-11T05:57:27.437Z,10.90
2018-12-11T05:59:54.963Z,11.27
2018-12-11T06:02:22.439Z,11.23
2018-12-11T06:04:49.915Z,15.07
2018-12-11T06:07:17.367Z,12.17
2018-12-11T06:09:44.850Z,11.40
2018-12-11T06:12:12.300Z,11.63
2018-12-11T06:14:39.782Z,14.27
2018-12-11T06:17:07.254Z,11.93
2018-12-11T06:19:34.744Z,11.37
2018-12-11T06:22:02.199Z,12.00
2018-12-11T06:24:29.666Z,10.33
2018-12-11T06:26:57.143Z,15.03
2018-12-11T06:29:24.631Z,13.50
2018-12-11T06:31:52.068Z,15.60
2018-12-11T06:34:19.529Z,13.13
2018-12-11T06:36:47.002Z,15.87
2018-12-11T06:39:14.461Z,13.03
2018-12-11T06:41:41.944Z,14.10
2018-12-11T06:44:09.440Z,14.03
2018-12-11T06:46:36.910Z,17.27
2018-12-11T06:49:04.384Z,12.90
2018-12-11T06:51:31.858Z,14.43
2018-12-11T06:53:59.315Z,11.23
2018-12-11T06:56:26.811Z,17.50
2018-12-11T06:58:54.264Z,14.97
2018-12-11T07:01:21.735Z,12.70
2018-12-11T07:03:49.200Z,11.90
2018-12-11T07:06:16.679Z,11.60
2018-12-11T07:08:44.142Z,12.53
2018-12-11T07:11:11.744Z,15.43
2018-12-11T07:13:39.205Z,10.40
2018-12-11T07:16:06.786Z,11.27
2018-12-11T07:18:34.248Z,11.10
2018-12-11T07:21:01.721Z,11.13
2018-12-11T07:23:29.305Z,10.30
2018-12-11T07:25:56.758Z,12.77
2018-12-11T07:28:24.264Z,12.50
2018-12-11T07:30:51.719Z,13.77
2018-12-11T07:33:19.528Z,13.27
2018-12-11T07:35:47.187Z,14.30
2018-12-11T07:38:14.651Z,9.43
2018-12-11T07:40:42.129Z,12.50
2018-12-11T07:43:09.649Z,11.20
2018-12-11T07:45:37.110Z,11.23
2018-12-11T07:48:04.658Z,8.33
2018-12-11T07:50:32.207Z,10.30
2018-12-11T07:52:59.686Z,10.03
2018-12-11T07:55:27.168Z,12.33
2018-12-11T07:57:54.621Z,9.00
2018-12-11T08:00:22.082Z,7.17
2018-12-11T08:02:49.539Z,10.03
2018-12-11T08:05:17.015Z,8.30
2018-12-11T08:07:44.497Z,9.57
2018-12-11T08:10:11.973Z,10.27
2018-12-11T08:12:39.466Z,11.30
2018-12-11T08:15:07.015Z,9.13
2018-12-11T08:17:34.476Z,13.67
2018-12-11T08:20:02.006Z,11.83
2018-12-11T08:22:29.475Z,12.67
2018-12-11T08:24:56.946Z,12.60
2018-12-11T08:27:24.419Z,17.47
2018-12-11T08:29:51.907Z,11.57
2018-12-11T08:32:19.375Z,14.90
2018-12-11T08:34:46.859Z,16.80
2018-12-11T08:37:14.346Z,11.43
2018-12-11T08:39:41.811Z,10.70
2018-12-11T08:42:09.291Z,12.57
2018-12-11T08:44:36.768Z,12.17
2018-12-11T08:47:04.315Z,14.03
2018-12-11T08:49:31.797Z,11.87
2018-12-11T08:51:59.264Z,13.03
2018-12-11T08:54:26.726Z,12.87
2018-12-11T08:56:54.212Z,14.27
2018-12-11T08:59:21.676Z,12.73
2018-12-11T09:01:49.155Z,9.40
2018-12-11T09:04:16.633Z,13.23
2018-12-11T09:06:44.126Z,13.00
2018-12-11T09:09:11.616Z,15.27
2018-12-11T09:11:39.159Z,10.63
2018-12-11T09:14:06.622Z,11.10
2018-12-11T09:16:34.102Z,7.67
2018-12-11T09:19:01.566Z,9.00
2018-12-11T09:21:29.018Z,9.30
2018-12-11T09:23:56.498Z,12.70
2018-12-11T09:26:23.963Z,10.57
2018-12-11T09:28:51.458Z,10.83
2018-12-11T09:31:18.915Z,10.27
2018-12-11T09:33:46.398Z,9.87
2018-12-11T09:36:13.858Z,11.07
2018-12-11T09:38:41.356Z,8.63
2018-12-11T09:41:08.791Z,9.00
2018-12-11T09:43:36.266Z,10.77
2018-12-11T09:46:03.874Z,8.37
2018-12-11T09:48:31.363Z,13.00
2018-12-11T09:50:58.838Z,9.90
2018-12-11T09:53:26.323Z,13.47
2018-12-11T09:55:53.802Z,12.17
2018-12-11T09:58:21.263Z,8.73
2018-12-11T10:00:48.721Z,12.73
2018-12-11T10:03:16.207Z,11.70
2018-12-11T10:05:43.668Z,8.73
2018-12-11T10:08:11.214Z,10.60
2018-12-11T10:10:38.706Z,11.23
2018-12-11T10:13:06.170Z,9.50
2018-12-11T10:15:33.659Z,10.57
2018-12-11T10:18:01.118Z,10.27
2018-12-11T10:20:28.611Z,11.03
2018-12-11T10:22:56.242Z,8.43
2018-12-11T10:25:23.750Z,9.13
2018-12-11T10:27:51.202Z,13.60
2018-12-11T10:30:18.683Z,13.57
2018-12-11T10:32:48.118Z,15.30
2018-12-11T10:35:15.694Z,12.53
2018-12-11T10:37:43.155Z,7.33
2018-12-11T10:40:10.650Z,11.63
2018-12-11T10:42:38.107Z,13.13
2018-12-11T10:45:05.721Z,10.57
2018-12-11T10:47:33.186Z,10.87
2018-12-11T10:50:00.691Z,12.27
2018-12-11T10:52:28.137Z,9.70
2018-12-11T10:54:55.597Z,12.30
2018-12-11T10:57:23.090Z,13.43
2018-12-11T10:59:50.541Z,11.43
2018-12-11T11:02:23.021Z,7.43
2018-12-11T11:04:50.510Z,15.17
2018-12-11T11:07:18.076Z,10.17
2018-12-11T11:09:46.637Z,11.47
2018-12-11T11:12:14.305Z,10.40
2018-12-11T11:14:41.755Z,12.10
2018-12-11T11:17:09.251Z,11.47
2018-12-11T11:19:36.740Z,12.20
2018-12-11T11:22:04.310Z,9.27
2018-12-11T11:24:31.775Z,5.53
2018-12-11T11:26:59.519Z,10.00
2018-12-11T11:29:26.973Z,10.00
2018-12-11T11:31:54.444Z,9.93
2018-12-11T11:34:21.912Z,10.20
2018-12-11T11:36:49.400Z,9.07
2018-12-11T11:39:16.986Z,9.53
2018-12-11T11:41:44.489Z,7.00
2018-12-11T11:44:11.972Z,9.97
2018-12-11T11:46:39.418Z,9.10
2018-12-11T11:49:06.910Z,8.90
2018-12-11T11:51:34.369Z,9.27
2018-12-11T11:54:01.856Z,11.20
2018-12-11T11:56:29.315Z,7.00
2018-12-11T11:58:56.789Z,10.57
2018-12-11T12:01:24.243Z,9.30
2018-12-11T12:03:51.809Z,9.43
2018-12-11T12:06:19.280Z,10.00
2018-12-11T12:08:46.758Z,9.40
2018-12-11T12:11:14.210Z,13.80
2018-12-11T12:13:41.682Z,11.60
2018-12-11T12:16:09.146Z,6.33
2018-12-11T12:18:36.627Z,5.17
2018-12-11T12:21:04.098Z,8.73
2018-12-11T12:23:31.583Z,13.70
2018-12-11T12:25:59.037Z,13.03
2018-12-11T12:28:26.498Z,13.57
2018-12-11T12:30:54.786Z,6.97
2018-12-11T12:33:22.231Z,9.07
2018-12-11T12:35:49.709Z,8.83
2018-12-11T12:38:17.150Z,11.37
2018-12-11T12:40:44.645Z,8.83
2018-12-11T12:43:12.103Z,6.33
2018-12-11T12:45:39.662Z,9.97
2018-12-11T12:48:07.112Z,9.77
2018-12-11T12:50:34.593Z,8.20
2018-12-11T12:53:02.039Z,10.20
2018-12-11T12:55:29.538Z,7.83
2018-12-11T12:57:56.976Z,8.20
2018-12-11T13:00:24.467Z,9.80
2018-12-11T13:02:51.910Z,6.30
2018-12-11T13:05:19.394Z,9.87
2018-12-11T13:07:46.849Z,8.60
2018-12-11T13:10:14.403Z,9.63
2018-12-11T13:12:42.059Z,8.97
2018-12-11T13:15:09.540Z,7.43
2018-12-11T13:17:36.981Z,6.07
2018-12-11T13:20:04.726Z,9.53
2018-12-11T13:22:32.190Z,8.13
2018-12-11T13:24:59.670Z,12.57
2018-12-11T13:27:27.142Z,10.33
2018-12-11T13:29:54.593Z,12.10
2018-12-11T13:32:22.075Z,10.37
2018-12-11T13:34:49.537Z,15.40
2018-12-11T13:37:17.122Z,13.20
2018-12-11T13:39:44.574Z,9.20
2018-12-11T13:42:12.158Z,7.10
2018-12-11T13:44:39.632Z,5.70
2018-12-11T13:47:07.301Z,5.77
2018-12-11T13:49:34.992Z,6.10
2018-12-11T13:52:02.453Z,9.87
2018-12-11T13:54:29.921Z,6.73
2018-12-11T13:56:57.415Z,7.53
2018-12-11T13:59:24.870Z,9.97
2018-12-11T14:01:52.345Z,9.60
2018-12-11T14:04:19.827Z,5.37
2018-12-11T14:06:47.315Z,11.00
2018-12-11T14:12:25.939Z,9.20
2018-12-11T14:14:53.379Z,9.83
2018-12-11T14:17:20.855Z,8.60
2018-12-11T14:19:48.331Z,8.37
2018-12-11T14:22:15.808Z,10.17
2018-12-11T14:24:43.280Z,7.87
2018-12-11T14:27:10.879Z,9.27
2018-12-11T14:29:38.525Z,10.23
2018-12-11T14:32:06.159Z,7.00
2018-12-11T14:34:33.642Z,10.23
2018-12-11T14:37:01.187Z,11.53
2018-12-11T14:39:28.658Z,9.07
2018-12-11T14:41:56.123Z,10.13
2018-12-11T14:44:24.677Z,11.50
2018-12-11T14:46:52.774Z,14.07
2018-12-11T14:49:20.399Z,11.57
2018-12-11T14:51:47.870Z,8.53
2018-12-11T14:54:15.378Z,13.17
2018-12-11T14:56:42.839Z,9.67
2018-12-11T14:59:10.320Z,9.07
2018-12-11T15:01:37.802Z,9.17
2018-12-11T15:04:06.023Z,12.00
2018-12-11T15:06:33.469Z,9.60
2018-12-11T15:09:06.646Z,10.53
2018-12-11T15:11:34.151Z,11.03
2018-12-11T15:14:01.636Z,8.07
2018-12-11T15:16:29.128Z,11.43
2018-12-11T15:18:56.605Z,11.67
2018-12-11T15:21:25.019Z,9.07
2018-12-11T15:23:52.474Z,8.23
2018-12-11T15:26:19.946Z,13.63
2018-12-11T15:28:47.433Z,11.47
2018-12-11T15:31:14.916Z,8.97
2018-12-11T15:33:42.403Z,11.50
2018-12-11T15:36:09.886Z,14.23
2018-12-11T15:38:37.408Z,12.23
2018-12-11T15:41:04.920Z,10.73
2018-12-11T15:43:33.430Z,13.50
2018-12-11T15:46:01.216Z,10.67
2018-12-11T15:48:28.841Z,9.53
2018-12-11T15:50:56.363Z,10.80
2018-12-11T15:53:23.844Z,10.27
2018-12-11T15:55:51.331Z,10.77
2018-12-11T15:58:24.790Z,9.77
2018-12-11T16:00:48.407Z,12.20
2018-12-11T16:03:15.962Z,9.40
2018-12-11T16:05:43.430Z,11.87
2018-12-11T16:08:11.022Z,10.30
2018-12-11T16:10:38.512Z,11.77
2018-12-11T16:13:05.990Z,17.07
2018-12-11T16:15:33.440Z,18.93
2018-12-11T16:18:01.014Z,16.80
2018-12-11T16:20:28.503Z,16.73
2018-12-11T16:22:56.018Z,17.10
2018-12-11T16:25:23.470Z,13.03
2018-12-11T16:27:51.075Z,11.23
2018-12-11T16:30:18.603Z,9.20
2018-12-11T16:32:46.091Z,12.30
2018-12-11T16:35:13.546Z,9.80
2018-12-11T16:37:41.189Z,8.13
2018-12-11T16:40:08.811Z,8.97
2018-12-11T16:42:36.292Z,10.77
2018-12-11T16:45:05.043Z,10.20
2018-12-11T16:47:32.498Z,10.63
2018-12-11T16:50:00.002Z,10.17
2018-12-11T16:52:27.879Z,11.87
2018-12-11T16:54:55.356Z,11.77
2018-12-11T16:57:22.853Z,11.70
2018-12-11T16:59:50.327Z,11.33
2018-12-11T17:02:17.802Z,11.87
2018-12-11T17:04:46.259Z,10.07
2018-12-11T17:07:14.122Z,13.73
2018-12-11T17:09:42.290Z,16.27
2018-12-11T17:12:10.522Z,17.63
2018-12-11T17:14:38.003Z,14.03
2018-12-11T17:17:05.488Z,16.87
2018-12-11T17:19:32.982Z,12.17
2018-12-11T17:22:00.573Z,16.00
2018-12-11T17:24:28.029Z,18.17
2018-12-11T17:26:57.548Z,11.90
2018-12-11T17:29:25.042Z,13.17
2018-12-11T17:31:52.638Z,15.50
2018-12-11T17:34:20.110Z,12.93
2018-12-11T17:36:47.590Z,13.17
2018-12-11T17:39:15.080Z,14.20
2018-12-11T17:41:42.558Z,12.93
2018-12-11T17:44:10.028Z,18.23
2018-12-11T17:46:37.608Z,13.17
2018-12-11T17:49:05.079Z,11.67
2018-12-11T17:51:32.583Z,12.13
2018-12-11T17:54:00.043Z,12.27
2018-12-11T17:56:27.507Z,13.23
2018-12-11T17:58:55.463Z,11.70
2018-12-11T18:01:24.905Z,15.37
2018-12-11T18:03:52.360Z,12.43
2018-12-11T18:06:19.808Z,9.70
2018-12-11T18:08:47.303Z,14.00
2018-12-11T18:11:14.765Z,12.87
2018-12-11T18:13:42.330Z,12.67
2018-12-11T18:16:09.919Z,10.10
2018-12-11T18:18:37.420Z,9.00
2018-12-11T18:21:04.942Z,9.63
2018-12-11T18:23:32.434Z,9.90
2018-12-11T18:26:00.004Z,11.03
2018-12-11T18:28:27.471Z,9.40
2018-12-11T18:30:54.921Z,10.40
2018-12-11T18:33:22.430Z,9.10
2018-12-11T18:35:50.017Z,10.53
2018-12-11T18:38:17.577Z,14.17
2018-12-11T18:40:45.078Z,16.00
2018-12-11T18:43:12.580Z,12.27
2018-12-11T18:45:40.139Z,13.80
2018-12-11T18:48:07.619Z,13.87
2018-12-11T18:50:35.106Z,13.67
2018-12-11T18:53:02.562Z,9.90
2018-12-11T18:55:30.033Z,7.90
2018-12-11T18:57:57.500Z,11.83
2018-12-11T19:00:24.994Z,11.17
2018-12-11T19:02:52.479Z,11.53
2018-12-11T19:05:20.266Z,9.43
2018-12-11T19:07:47.719Z,9.20
2018-12-11T19:10:15.175Z,12.47
2018-12-11T19:12:42.643Z,9.67
2018-12-11T19:15:10.216Z,12.77
2018-12-11T19:17:37.722Z,12.23
2018-12-11T19:20:06.032Z,9.20
2018-12-11T19:22:33.518Z,9.93
2018-12-11T19:25:00.981Z,10.37
2018-12-11T19:27:28.447Z,8.87
2018-12-11T19:29:55.913Z,9.33
2018-12-11T19:32:23.486Z,9.80
2018-12-11T19:34:50.951Z,11.17
2018-12-11T19:37:18.421Z,9.97
2018-12-11T19:39:45.878Z,11.43
2018-12-11T19:42:13.371Z,7.53
2018-12-11T19:44:40.836Z,8.43
2018-12-11T19:47:08.327Z,10.23
2018-12-11T19:49:35.793Z,14.43
2018-12-11T19:52:03.269Z,8.03
2018-12-11T19:54:30.750Z,11.53
2018-12-11T19:56:58.215Z,19.30
2018-12-11T19:59:26.820Z,12.43
2018-12-11T20:01:54.325Z,17.00
2018-12-11T20:04:21.882Z,18.77
2018-12-11T20:06:49.365Z,13.20
2018-12-11T20:09:16.849Z,13.67
2018-12-11T20:11:44.317Z,17.00
2018-12-11T20:14:11.883Z,15.00
2018-12-11T20:16:39.339Z,14.67
2018-12-11T20:19:06.986Z,16.03
2018-12-11T20:21:34.470Z,12.27
2018-12-11T20:24:04.963Z,12.97
2018-12-11T20:26:31.455Z,13.13
2018-12-11T20:28:58.932Z,13.27
2018-12-11T20:31:26.399Z,11.30
2018-12-11T20:33:53.940Z,15.30
2018-12-11T20:36:21.439Z,15.07
2018-12-11T20:38:49.196Z,16.97
2018-12-11T20:41:16.688Z,14.03
2018-12-11T20:43:44.154Z,14.17
2018-12-11T20:46:11.627Z,20.43
2018-12-11T20:48:39.367Z,13.13
2018-12-11T20:51:06.831Z,15.03
2018-12-11T20:53:34.312Z,14.47
2018-12-11T20:56:01.773Z,18.87
2018-12-11T20:58:29.235Z,15.27
2018-12-11T21:00:56.707Z,15.70
2018-12-11T21:03:24.189Z,13.70
2018-12-11T21:05:51.639Z,13.20
2018-12-11T21:08:19.276Z,17.27
2018-12-11T21:10:46.756Z,15.43
2018-12-11T21:13:14.242Z,13.97
2018-12-11T21:15:41.738Z,14.30
2018-12-11T21:18:09.194Z,14.83
2018-12-11T21:20:36.675Z,14.70
2018-12-11T21:23:04.131Z,18.50
2018-12-11T21:25:31.590Z,17.53
2018-12-11T21:27:59.082Z,19.07
2018-12-11T21:30:26.538Z,19.80
2018-12-11T21:32:54.006Z,20.27
2018-12-11T21:35:21.475Z,17.50
2018-12-11T21:37:49.058Z,17.30
2018-12-11T21:40:16.566Z,17.73
2018-12-11T21:42:44.042Z,16.80
2018-12-11T21:45:11.603Z,22.20
2018-12-11T21:47:39.152Z,17.93
2018-12-11T21:50:07.064Z,22.20
2018-12-11T21:52:34.599Z,24.13
2018-12-11T21:55:02.719Z,18.03
2018-12-11T21:57:30.474Z,23.67
2018-12-11T21:59:57.988Z,21.47
2018-12-11T22:02:25.451Z,20.53
2018-12-11T22:04:53.057Z,24.80
2018-12-11T22:07:21.365Z,15.73
2018-12-11T22:09:49.479Z,25.50
2018-12-11T22:12:17.939Z,26.13
2018-12-11T22:14:45.503Z,29.40
2018-12-11T22:17:12.998Z,22.70
2018-12-11T22:19:40.532Z,21.60
2018-12-11T22:22:08.194Z,21.10
2018-12-11T22:24:35.719Z,23.47
2018-12-11T22:27:03.309Z,16.87
2018-12-11T22:29:30.883Z,19.87
2018-12-11T22:31:58.417Z,18.43
2018-12-11T22:34:25.916Z,20.37
2018-12-11T22:36:53.450Z,16.50
2018-12-11T22:39:21.041Z,18.40
2018-12-11T22:41:48.519Z,18.23
2018-12-11T22:44:16.160Z,18.97
2018-12-11T22:46:43.674Z,19.37
2018-12-11T22:49:11.151Z,19.57
2018-12-11T22:51:39.199Z,17.30
2018-12-11T22:54:07.697Z,18.97
2018-12-11T22:56:35.252Z,18.27
2018-12-11T22:59:02.795Z,24.37
2018-12-11T23:01:30.991Z,20.80
2018-12-11T23:03:59.278Z,21.93
2018-12-11T23:06:26.759Z,22.30
2018-12-11T23:08:54.957Z,23.17
2018-12-11T23:11:22.575Z,27.40
2018-12-11T23:13:50.059Z,22.03
2018-12-11T23:16:17.595Z,23.63
2018-12-11T23:18:45.106Z,25.33
2018-12-11T23:21:12.613Z,27.87
2018-12-11T23:23:40.189Z,29.33
2018-12-11T23:26:07.751Z,23.77
2018-12-11T23:28:35.298Z,22.87
2018-12-11T23:31:02.827Z,24.27
2018-12-11T23:33:30.398Z,21.70
2018-12-11T23:35:57.882Z,22.50
2018-12-11T23:38:25.380Z,19.50
2018-12-11T23:40:52.920Z,20.40
2018-12-11T23:43:20.411Z,17.90
2018-12-11T23:45:47.946Z,18.23
2018-12-11T23:48:15.450Z,19.17
2018-12-11T23:50:43.019Z,21.13
2018-12-11T23:53:10.578Z,18.67
2018-12-11T23:55:38.195Z,21.00
2018-12-11T23:58:05.808Z,17.20
